createdAt,value
2023-03-03T00:01:15.398Z,8.70
2023-03-03T00:03:43.657Z,9.10
2023-03-03T00:06:14.158Z,8.70
2023-03-03T00:08:43.841Z,8.77
2023-03-03T00:11:12.331Z,8.90
2023-03-03T00:13:46.646Z,9.30
2023-03-03T00:16:23.640Z,8.60
2023-03-03T00:18:52.313Z,8.60
2023-03-03T00:21:30.195Z,9.50
2023-03-03T00:24:18.632Z,9.83
2023-03-03T00:26:48.161Z,9.83
2023-03-03T00:29:35.818Z,9.47
2023-03-03T00:32:25.081Z,10.50
2023-03-03T00:34:54.899Z,10.43
2023-03-03T00:37:34.521Z,10.20
2023-03-03T00:40:24.071Z,10.00
2023-03-03T00:42:54.387Z,10.80
2023-03-03T00:45:32.324Z,11.03
2023-03-03T00:48:09.874Z,11.30
2023-03-03T00:50:44.285Z,11.83
2023-03-03T00:53:14.624Z,11.07
2023-03-03T00:55:45.083Z,10.10
2023-03-03T00:58:14.049Z,11.00
2023-03-03T01:00:45.858Z,11.37
2023-03-03T01:03:19.192Z,12.50
2023-03-03T01:05:47.896Z,11.63
2023-03-03T01:08:16.172Z,11.77
2023-03-03T01:10:50.850Z,10.93
2023-03-03T01:13:20.384Z,11.70
2023-03-03T01:15:48.690Z,11.40
2023-03-03T01:18:16.913Z,11.00
2023-03-03T01:20:45.036Z,10.90
2023-03-03T01:23:13.412Z,10.70
2023-03-03T01:25:41.739Z,11.50
2023-03-03T01:28:11.197Z,12.37
2023-03-03T01:30:39.376Z,12.30
2023-03-03T01:33:07.510Z,12.13
2023-03-03T01:35:36.568Z,11.43
2023-03-03T01:38:04.889Z,12.80
2023-03-03T01:40:33.331Z,11.40
2023-03-03T01:43:02.193Z,11.80
2023-03-03T01:45:37.610Z,11.30
2023-03-03T01:48:09.870Z,12.63
2023-03-03T01:50:43.274Z,11.80
2023-03-03T01:53:16.586Z,11.70
2023-03-03T01:55:46.374Z,12.77
2023-03-03T01:58:18.402Z,12.30
2023-03-03T02:00:51.920Z,12.97
2023-03-03T02:03:22.166Z,11.90
2023-03-03T02:05:51.708Z,13.13
2023-03-03T02:08:25.137Z,12.47
2023-03-03T02:10:53.897Z,12.47
2023-03-03T02:13:21.927Z,12.53
2023-03-03T02:15:52.275Z,11.87
2023-03-03T02:18:21.624Z,13.57
2023-03-03T02:20:57.788Z,12.30
2023-03-03T02:23:31.316Z,13.07
2023-03-03T02:26:11.357Z,13.03
2023-03-03T02:28:41.296Z,12.33
2023-03-03T02:31:14.311Z,13.23
2023-03-03T02:33:44.860Z,11.77
2023-03-03T02:36:14.951Z,13.17
2023-03-03T02:38:47.424Z,13.23
2023-03-03T02:41:27.539Z,12.73
2023-03-03T02:44:00.987Z,13.87
2023-03-03T02:46:32.966Z,13.60
2023-03-03T02:49:02.497Z,11.50
2023-03-03T02:51:30.909Z,12.43
2023-03-03T02:53:58.960Z,12.60
2023-03-03T02:56:31.038Z,12.93
2023-03-03T02:58:59.967Z,13.73
2023-03-03T03:01:32.078Z,12.93
2023-03-03T03:04:00.311Z,12.97
2023-03-03T03:06:28.955Z,13.00
2023-03-03T03:08:57.991Z,13.40
2023-03-03T03:11:26.078Z,13.50
2023-03-03T03:13:55.475Z,13.00
2023-03-03T03:16:24.550Z,13.57
2023-03-03T03:18:52.688Z,14.63
2023-03-03T03:21:21.260Z,14.57
2023-03-03T03:23:49.315Z,15.30
2023-03-03T03:26:20.925Z,13.90
2023-03-03T03:28:51.283Z,13.43
2023-03-03T03:31:21.886Z,13.70
2023-03-03T03:33:49.951Z,13.03
2023-03-03T03:36:18.415Z,13.70
2023-03-03T03:38:46.664Z,14.83
2023-03-03T03:41:15.322Z,13.70
2023-03-03T03:43:43.799Z,14.57
2023-03-03T03:46:11.966Z,15.43
2023-03-03T03:48:41.482Z,15.03
2023-03-03T03:51:12.765Z,14.80
2023-03-03T03:53:41.858Z,14.90
2023-03-03T03:56:09.943Z,14.07
2023-03-03T03:58:38.317Z,15.33
2023-03-03T04:01:11.376Z,15.43
2023-03-03T04:03:46.126Z,14.03
2023-03-03T04:06:17.958Z,15.37
2023-03-03T04:08:46.098Z,14.40
2023-03-03T04:11:15.205Z,15.27
2023-03-03T04:13:43.291Z,16.27
2023-03-03T04:16:13.214Z,15.87
2023-03-03T04:18:46.407Z,13.90
2023-03-03T04:21:17.546Z,14.60
2023-03-03T04:23:47.206Z,14.80
2023-03-03T04:26:15.325Z,13.67
2023-03-03T04:28:45.739Z,14.53
2023-03-03T04:31:14.006Z,15.90
2023-03-03T04:33:42.470Z,15.33
2023-03-03T04:36:10.765Z,14.70
2023-03-03T04:38:40.556Z,15.03
2023-03-03T04:41:08.672Z,14.97
2023-03-03T04:43:40.091Z,15.03
2023-03-03T04:46:08.266Z,14.57
2023-03-03T04:48:38.414Z,15.83
2023-03-03T04:51:06.854Z,16.20
2023-03-03T04:53:36.662Z,16.23
2023-03-03T04:56:06.999Z,16.37
2023-03-03T04:58:36.006Z,15.70
2023-03-03T05:01:04.457Z,16.77
2023-03-03T05:03:34.161Z,15.57
2023-03-03T05:06:02.362Z,14.50
2023-03-03T05:08:30.578Z,15.40
2023-03-03T05:10:59.785Z,15.50
2023-03-03T05:13:29.819Z,15.10
2023-03-03T05:15:58.487Z,14.90
2023-03-03T05:18:27.526Z,16.77
2023-03-03T05:20:55.897Z,16.10
2023-03-03T05:23:23.934Z,14.90
2023-03-03T05:25:52.357Z,15.80
2023-03-03T05:28:20.420Z,16.80
2023-03-03T05:30:49.806Z,16.80
2023-03-03T05:33:18.580Z,16.67
2023-03-03T05:35:46.642Z,15.90
2023-03-03T05:38:14.719Z,16.43
2023-03-03T05:40:43.853Z,16.30
2023-03-03T05:43:11.960Z,16.40
2023-03-03T05:45:39.956Z,17.77
2023-03-03T05:48:10.169Z,16.53
2023-03-03T05:50:39.036Z,16.60
2023-03-03T05:53:07.537Z,18.47
2023-03-03T05:55:35.571Z,17.53
2023-03-03T05:58:03.601Z,16.33
2023-03-03T06:00:31.696Z,17.37
2023-03-03T06:02:59.875Z,17.47
2023-03-03T06:05:29.341Z,17.10
2023-03-03T06:07:57.705Z,17.90
2023-03-03T06:10:25.744Z,16.50
2023-03-03T06:12:58.470Z,16.20
2023-03-03T06:15:26.500Z,16.17
2023-03-03T06:17:54.680Z,15.17
2023-03-03T06:20:22.703Z,14.50
2023-03-03T06:22:52.051Z,14.33
2023-03-03T06:25:20.102Z,15.47
2023-03-03T06:27:48.162Z,16.07
2023-03-03T06:30:16.784Z,15.60
2023-03-03T06:32:44.814Z,16.53
2023-03-03T06:35:13.101Z,16.27
2023-03-03T06:37:41.285Z,15.53
2023-03-03T06:40:12.007Z,14.60
2023-03-03T06:42:40.013Z,15.60
2023-03-03T06:45:08.848Z,15.97
2023-03-03T06:47:36.838Z,14.20
2023-03-03T06:50:05.172Z,14.57
2023-03-03T06:52:33.360Z,15.07
2023-03-03T06:55:10.808Z,16.07
2023-03-03T06:57:41.162Z,16.63
2023-03-03T07:00:17.435Z,16.87
2023-03-03T07:02:45.518Z,15.20
2023-03-03T07:05:16.864Z,18.67
2023-03-03T07:07:45.240Z,15.03
2023-03-03T07:10:23.263Z,14.40
2023-03-03T07:12:53.008Z,13.87
2023-03-03T07:15:24.320Z,15.07
2023-03-03T07:17:58.131Z,15.40
2023-03-03T07:20:33.204Z,16.43
2023-03-03T07:23:02.182Z,15.37
2023-03-03T07:25:33.264Z,15.10
2023-03-03T07:28:26.490Z,15.10
2023-03-03T07:30:55.828Z,15.70
2023-03-03T07:33:27.516Z,15.47
2023-03-03T07:35:57.724Z,15.57
2023-03-03T07:38:31.504Z,13.83
2023-03-03T07:41:01.967Z,14.93
2023-03-03T07:43:38.429Z,13.47
2023-03-03T07:46:24.624Z,14.43
2023-03-03T07:48:54.162Z,14.93
2023-03-03T07:51:25.311Z,14.20
2023-03-03T07:53:54.510Z,12.97
2023-03-03T07:56:31.876Z,13.87
2023-03-03T07:59:04.350Z,13.07
2023-03-03T08:01:42.471Z,15.07
2023-03-03T08:04:18.775Z,13.20
2023-03-03T08:06:53.027Z,13.00
2023-03-03T08:09:45.713Z,13.87
2023-03-03T08:12:42.268Z,13.77
2023-03-03T08:15:24.562Z,12.20
2023-03-03T08:17:54.906Z,13.07
2023-03-03T08:20:50.402Z,12.50
2023-03-03T08:23:20.319Z,13.73
2023-03-03T08:25:49.792Z,12.53
2023-03-03T08:28:18.958Z,11.70
2023-03-03T08:30:49.339Z,11.90
2023-03-03T08:33:18.895Z,12.60
2023-03-03T08:35:48.224Z,13.83
2023-03-03T08:38:18.548Z,12.83
2023-03-03T08:40:47.758Z,12.83
2023-03-03T08:43:21.287Z,12.40
2023-03-03T08:45:52.455Z,13.27
2023-03-03T08:48:21.579Z,11.43
2023-03-03T08:50:49.659Z,11.73
2023-03-03T08:53:18.929Z,12.60
2023-03-03T08:55:47.284Z,11.30
2023-03-03T08:58:16.203Z,11.57
2023-03-03T09:00:46.589Z,11.10
2023-03-03T09:03:17.543Z,11.97
2023-03-03T09:05:46.096Z,12.00
2023-03-03T09:08:14.626Z,11.50
2023-03-03T09:10:42.728Z,11.47
2023-03-03T09:13:15.691Z,12.47
2023-03-03T09:15:44.113Z,11.07
2023-03-03T09:18:17.992Z,10.13
2023-03-03T09:20:47.214Z,12.43
2023-03-03T09:23:42.486Z,11.63
2023-03-03T09:26:30.431Z,11.00
2023-03-03T09:29:17.980Z,10.10
2023-03-03T09:31:48.909Z,10.23
2023-03-03T09:34:23.442Z,9.00
2023-03-03T09:36:54.859Z,9.93
2023-03-03T09:39:25.230Z,9.30
2023-03-03T09:42:13.702Z,8.97
2023-03-03T09:45:35.896Z,10.37
2023-03-03T09:48:43.674Z,10.07
2023-03-03T09:51:26.127Z,10.30
2023-03-03T09:54:18.948Z,9.23
2023-03-03T09:56:54.512Z,8.67
2023-03-03T09:59:34.121Z,9.30
2023-03-03T10:02:25.994Z,8.53
2023-03-03T10:05:18.118Z,8.80
2023-03-03T10:08:00.713Z,8.30
2023-03-03T10:10:51.732Z,8.50
2023-03-03T10:13:32.892Z,8.97
2023-03-03T10:16:22.060Z,8.33
2023-03-03T10:18:56.811Z,9.67
2023-03-03T10:21:30.654Z,8.67
2023-03-03T10:24:11.863Z,8.40
2023-03-03T10:27:11.906Z,7.90
2023-03-03T10:29:47.200Z,9.97
2023-03-03T10:32:41.335Z,7.67
2023-03-03T10:35:37.331Z,8.47
2023-03-03T10:38:22.017Z,8.10
2023-03-03T10:40:57.339Z,6.87
2023-03-03T10:43:48.050Z,7.43
2023-03-03T10:46:28.613Z,8.80
2023-03-03T10:49:10.505Z,7.77
2023-03-03T10:51:45.373Z,9.10
2023-03-03T10:54:33.193Z,8.83
2023-03-03T10:57:08.397Z,8.10
2023-03-03T10:59:46.930Z,7.47
2023-03-03T11:02:22.356Z,8.57
2023-03-03T11:05:00.528Z,8.50
2023-03-03T11:07:36.230Z,7.53
2023-03-03T11:10:19.694Z,8.27
2023-03-03T11:13:03.257Z,8.33
2023-03-03T11:15:41.875Z,9.20
2023-03-03T11:18:34.830Z,7.20
2023-03-03T11:21:10.612Z,7.70
2023-03-03T11:23:56.361Z,8.10
2023-03-03T11:26:37.307Z,7.10
2023-03-03T11:29:28.783Z,7.50
2023-03-03T11:31:58.952Z,8.43
2023-03-03T11:34:53.882Z,7.67
2023-03-03T11:37:27.592Z,7.50
2023-03-03T11:40:02.494Z,7.50
2023-03-03T11:42:40.332Z,7.63
2023-03-03T11:45:18.886Z,7.60
2023-03-03T11:47:53.593Z,7.43
2023-03-03T11:50:24.724Z,7.70
2023-03-03T11:53:01.194Z,5.57
2023-03-03T11:55:34.256Z,8.40
2023-03-03T11:58:13.769Z,6.23
2023-03-03T12:00:49.627Z,7.57
2023-03-03T12:03:30.812Z,7.60
2023-03-03T12:06:13.328Z,6.40
2023-03-03T12:09:06.504Z,6.30
2023-03-03T12:11:42.559Z,7.13
2023-03-03T12:14:19.007Z,7.20
2023-03-03T12:16:56.394Z,5.83
2023-03-03T12:19:35.327Z,6.87
2023-03-03T12:22:25.280Z,6.20
2023-03-03T12:25:16.398Z,5.80
2023-03-03T12:27:50.164Z,6.90
2023-03-03T12:30:29.894Z,6.30
2023-03-03T12:33:14.753Z,6.50
2023-03-03T12:35:51.160Z,6.37
2023-03-03T12:38:30.302Z,6.87
2023-03-03T12:41:05.119Z,6.27
2023-03-03T12:43:47.736Z,6.83
2023-03-03T12:46:28.607Z,6.33
2023-03-03T12:48:58.280Z,7.60
2023-03-03T12:51:36.999Z,6.67
2023-03-03T12:54:37.612Z,7.20
2023-03-03T12:57:17.104Z,6.47
2023-03-03T12:59:55.157Z,6.40
2023-03-03T13:02:42.558Z,6.70
2023-03-03T13:05:21.499Z,5.57
2023-03-03T13:07:59.265Z,5.47
2023-03-03T13:10:35.804Z,6.60
2023-03-03T13:13:11.183Z,5.40
2023-03-03T13:15:55.223Z,4.33
2023-03-03T13:18:34.307Z,4.80
2023-03-03T13:21:10.832Z,4.70
2023-03-03T13:23:49.394Z,4.50
2023-03-03T13:26:23.577Z,4.70
2023-03-03T13:29:01.076Z,4.97
2023-03-03T13:31:35.227Z,4.70
2023-03-03T13:34:04.088Z,4.97
2023-03-03T13:36:38.652Z,4.60
2023-03-03T13:39:15.620Z,4.90
2023-03-03T13:41:51.436Z,4.10
2023-03-03T13:44:25.599Z,4.10
2023-03-03T13:47:04.809Z,4.63
2023-03-03T13:49:47.844Z,4.70
2023-03-03T13:52:22.571Z,4.70
2023-03-03T13:55:15.228Z,3.93
2023-03-03T13:57:50.814Z,3.67
2023-03-03T14:00:45.885Z,4.07
2023-03-03T14:03:38.380Z,3.77
2023-03-03T14:06:11.600Z,4.17
2023-03-03T14:09:11.146Z,4.07
2023-03-03T14:11:47.649Z,3.70
2023-03-03T14:14:30.828Z,4.00
2023-03-03T14:17:03.160Z,3.67
2023-03-03T14:19:35.471Z,3.60
2023-03-03T14:22:23.728Z,3.20
2023-03-03T14:25:01.638Z,3.90
2023-03-03T14:27:36.930Z,3.33
2023-03-03T14:30:28.867Z,3.83
2023-03-03T14:33:20.436Z,3.10
2023-03-03T14:36:02.426Z,4.17
2023-03-03T14:38:54.487Z,3.33
2023-03-03T14:41:37.144Z,3.27
2023-03-03T14:44:26.365Z,3.70
2023-03-03T14:47:13.988Z,3.60
2023-03-03T14:49:42.293Z,4.40
2023-03-03T14:52:22.015Z,3.20
2023-03-03T14:54:52.109Z,3.00
2023-03-03T14:57:23.668Z,3.20
2023-03-03T15:00:00.648Z,3.30
2023-03-03T15:02:35.859Z,3.00
2023-03-03T15:05:19.396Z,3.50
2023-03-03T15:07:49.892Z,3.10
2023-03-03T15:10:29.695Z,3.40
2023-03-03T15:12:59.936Z,3.03
2023-03-03T15:15:29.810Z,3.07
2023-03-03T15:18:02.568Z,2.50
2023-03-03T15:20:43.655Z,3.97
2023-03-03T15:23:32.750Z,3.13
2023-03-03T15:26:07.113Z,2.73
2023-03-03T15:28:46.897Z,2.53
2023-03-03T15:31:23.401Z,3.10
2023-03-03T15:34:02.610Z,2.90
2023-03-03T15:36:40.194Z,2.73
2023-03-03T15:39:23.566Z,2.83
2023-03-03T15:42:03.028Z,2.60
2023-03-03T15:44:46.875Z,2.90
2023-03-03T15:47:33.744Z,3.23
2023-03-03T15:50:31.066Z,2.77
2023-03-03T15:53:12.739Z,2.87
2023-03-03T15:55:51.178Z,3.13
2023-03-03T15:58:50.055Z,3.30
2023-03-03T16:01:25.720Z,2.90
2023-03-03T16:03:58.577Z,2.33
2023-03-03T16:06:39.111Z,2.80
2023-03-03T16:09:17.725Z,3.40
2023-03-03T16:11:50.997Z,2.60
2023-03-03T16:14:58.888Z,2.40
2023-03-03T16:17:36.630Z,2.90
2023-03-03T16:20:15.963Z,2.33
2023-03-03T16:22:57.168Z,2.80
2023-03-03T16:25:43.293Z,2.70
2023-03-03T16:28:19.268Z,2.37
2023-03-03T16:30:53.361Z,2.40
2023-03-03T16:33:30.715Z,2.47
2023-03-03T16:36:05.147Z,3.00
2023-03-03T16:38:38.586Z,2.50
2023-03-03T16:41:12.492Z,3.10
2023-03-03T16:43:50.087Z,2.40
2023-03-03T16:46:30.866Z,2.40
2023-03-03T16:49:09.518Z,2.73
2023-03-03T16:51:47.542Z,2.87
2023-03-03T16:54:26.753Z,2.73
2023-03-03T16:57:04.469Z,2.80
2023-03-03T16:59:53.681Z,2.90
2023-03-03T17:02:41.984Z,2.80
2023-03-03T17:05:22.082Z,3.10
2023-03-03T17:08:04.436Z,3.20
2023-03-03T17:10:38.801Z,3.20
2023-03-03T17:13:19.665Z,4.40
2023-03-03T17:15:59.464Z,3.40
2023-03-03T17:18:40.926Z,3.63
2023-03-03T17:21:21.795Z,3.17
2023-03-03T17:24:03.767Z,3.00
2023-03-03T17:26:43.159Z,3.37
2023-03-03T17:29:28.400Z,3.00
2023-03-03T17:32:04.487Z,3.73
2023-03-03T17:34:41.964Z,3.93
2023-03-03T17:37:23.804Z,3.83
2023-03-03T17:40:23.227Z,3.83
2023-03-03T17:42:59.165Z,3.60
2023-03-03T17:45:31.191Z,3.80
2023-03-03T17:48:23.770Z,3.40
2023-03-03T17:51:13.889Z,3.93
2023-03-03T17:53:54.321Z,4.80
2023-03-03T17:56:26.994Z,3.50
2023-03-03T17:59:22.206Z,3.23
2023-03-03T18:02:01.518Z,3.97
2023-03-03T18:05:08.779Z,3.80
2023-03-03T18:07:50.206Z,3.60
2023-03-03T18:11:04.648Z,3.80
2023-03-03T18:13:57.558Z,4.20
2023-03-03T18:16:38.377Z,3.93
2023-03-03T18:19:22.999Z,5.37
2023-03-03T18:21:57.193Z,29.57
2023-03-03T18:24:55.049Z,19.43
2023-03-03T18:27:36.688Z,5.87
2023-03-03T18:30:36.361Z,6.83
2023-03-03T18:33:14.933Z,7.00
2023-03-03T18:35:44.729Z,6.23
2023-03-03T18:38:34.869Z,4.77
2023-03-03T18:41:04.900Z,4.80
2023-03-03T18:44:04.543Z,5.10
2023-03-03T18:46:53.860Z,5.20
2023-03-03T18:49:49.887Z,7.07
2023-03-03T18:52:22.150Z,7.30
2023-03-03T18:55:17.613Z,7.87
2023-03-03T18:58:03.613Z,12.73
2023-03-03T19:00:33.236Z,9.80
2023-03-03T19:03:01.427Z,5.80
2023-03-03T19:05:38.773Z,4.90
2023-03-03T19:08:22.759Z,4.30
2023-03-03T19:10:54.460Z,4.40
2023-03-03T19:13:52.808Z,5.30
2023-03-03T19:16:38.382Z,4.87
2023-03-03T19:19:12.908Z,5.40
2023-03-03T19:21:43.085Z,5.20
2023-03-03T19:24:27.474Z,5.10
2023-03-03T19:27:14.560Z,5.00
2023-03-03T19:30:22.769Z,5.27
2023-03-03T19:33:32.876Z,5.00
2023-03-03T19:36:18.450Z,4.90
2023-03-03T19:38:57.571Z,5.27
2023-03-03T19:41:41.287Z,5.10
2023-03-03T19:44:21.672Z,6.03
2023-03-03T19:46:59.618Z,6.03
2023-03-03T19:49:49.816Z,6.03
2023-03-03T19:52:26.078Z,4.73
2023-03-03T19:55:09.561Z,5.13
2023-03-03T19:57:47.601Z,5.83
2023-03-03T20:00:23.153Z,5.50
2023-03-03T20:03:06.004Z,4.80
2023-03-03T20:05:41.529Z,4.20
2023-03-03T20:08:19.360Z,4.40
2023-03-03T20:10:55.870Z,5.10
2023-03-03T20:13:37.674Z,5.33
2023-03-03T20:16:16.921Z,4.80
2023-03-03T20:18:58.686Z,4.70
2023-03-03T20:21:34.067Z,8.60
2023-03-03T20:24:30.454Z,6.63
2023-03-03T20:27:01.496Z,6.80
2023-03-03T20:29:45.305Z,5.93
2023-03-03T20:32:22.108Z,6.00
2023-03-03T20:35:00.160Z,6.03
2023-03-03T20:37:44.906Z,6.40
2023-03-03T20:40:21.879Z,5.60
2023-03-03T20:42:59.141Z,5.57
2023-03-03T20:45:38.347Z,5.00
2023-03-03T20:48:18.887Z,5.00
2023-03-03T20:50:56.950Z,5.20
2023-03-03T20:53:29.980Z,5.30
2023-03-03T20:56:06.568Z,5.73
2023-03-03T20:58:46.657Z,5.73
2023-03-03T21:01:17.329Z,7.20
2023-03-03T21:03:46.165Z,5.77
2023-03-03T21:06:16.173Z,6.30
2023-03-03T21:08:48.261Z,6.50
2023-03-03T21:11:19.671Z,6.20
2023-03-03T21:13:51.727Z,8.90
2023-03-03T21:16:32.422Z,5.93
2023-03-03T21:19:03.028Z,5.87
2023-03-03T21:21:32.736Z,4.80
2023-03-03T21:24:00.759Z,5.87
2023-03-03T21:26:49.713Z,6.10
2023-03-03T21:29:23.033Z,5.77
2023-03-03T21:31:52.724Z,5.37
2023-03-03T21:34:26.360Z,6.03
2023-03-03T21:36:55.350Z,5.20
2023-03-03T21:39:27.317Z,5.33
2023-03-03T21:41:59.137Z,5.73
2023-03-03T21:44:32.712Z,10.60
2023-03-03T21:47:01.171Z,7.33
2023-03-03T21:49:29.407Z,6.20
2023-03-03T21:51:58.344Z,6.50
2023-03-03T21:54:26.495Z,7.37
2023-03-03T21:56:55.991Z,10.20
2023-03-03T21:59:24.031Z,7.40
2023-03-03T22:01:52.117Z,6.30
2023-03-03T22:04:20.641Z,5.87
2023-03-03T22:06:48.886Z,6.07
2023-03-03T22:09:16.932Z,7.10
2023-03-03T22:11:45.301Z,7.80
2023-03-03T22:14:15.272Z,8.40
2023-03-03T22:16:43.314Z,8.13
2023-03-03T22:19:11.314Z,7.80
2023-03-03T22:21:40.508Z,7.20
2023-03-03T22:24:09.464Z,7.07
2023-03-03T22:26:37.511Z,7.17
2023-03-03T22:29:06.297Z,6.73
2023-03-03T22:31:35.741Z,8.43
2023-03-03T22:34:04.541Z,7.33
2023-03-03T22:36:32.606Z,7.27
2023-03-03T22:39:00.844Z,10.60
2023-03-03T22:41:28.954Z,10.57
2023-03-03T22:43:56.946Z,8.97
2023-03-03T22:46:25.339Z,8.47
2023-03-03T22:48:55.554Z,8.30
2023-03-03T22:51:23.574Z,8.13
2023-03-03T22:53:51.577Z,7.83
2023-03-03T22:56:19.774Z,9.87
2023-03-03T22:58:47.790Z,8.97
2023-03-03T23:01:15.796Z,10.37
2023-03-03T23:03:43.782Z,9.67
2023-03-03T23:06:13.170Z,9.03
2023-03-03T23:08:41.220Z,10.20
2023-03-03T23:11:09.268Z,11.33
2023-03-03T23:13:37.333Z,10.20
2023-03-03T23:16:06.148Z,10.00
2023-03-03T23:18:34.277Z,10.33
2023-03-03T23:21:02.338Z,10.50
2023-03-03T23:23:31.753Z,10.17
2023-03-03T23:25:59.763Z,12.07
2023-03-03T23:28:27.942Z,10.37
2023-03-03T23:30:55.969Z,10.60
2023-03-03T23:33:23.998Z,12.40
2023-03-03T23:35:52.879Z,13.30
2023-03-03T23:38:21.006Z,13.90
2023-03-03T23:40:50.341Z,12.60
2023-03-03T23:43:18.393Z,13.00
2023-03-03T23:45:46.476Z,12.80
2023-03-03T23:48:14.680Z,12.77
2023-03-03T23:50:42.735Z,11.40
2023-03-03T23:53:10.760Z,10.90
2023-03-03T23:55:38.791Z,12.90
2023-03-03T23:58:08.906Z,12.07
